Time;durP1;ratioP1;P1;durP2;ratioP2;P2;SDS_P1;SDS_P2;PMS_P1;PMS_P2;Temp;Humidity;BMP_temperature;BMP_pressure;BME280_temperature;BME280_humidity;BME280_pressure;Samples;Min_cycle;Max_cycle;Signal;HPM_P1;HPM_P2
2021/10/31 00:03:17;;;;;;;12.60;9.73;;;;;;;13.10;72.66;100448.44;6105238;28;20240;-63
2021/10/31 00:06:39;;;;;;;11.93;10.73;;;;;;;13.22;72.28;100451.66;6103816;28;20240;-64
2021/10/31 00:10:00;;;;;;;11.20;10.20;;;;;;;13.15;73.13;100453.56;6102361;29;20668;-64
2021/10/31 00:13:20;;;;;;;11.03;9.97;;;;;;;13.03;72.94;100449.53;6102690;28;20235;-64
2021/10/31 00:16:42;;;;;;;11.00;10.00;;;;;;;12.95;73.50;100456.66;6101033;28;20653;-64
2021/10/31 00:20:04;;;;;;;13.73;10.53;;;;;;;13.03;73.41;100461.72;6103519;29;21116;-65
2021/10/31 00:23:26;;;;;;;10.50;9.50;;;;;;;13.34;72.30;100452.22;6105617;28;20240;-64
2021/10/31 00:26:47;;;;;;;12.97;10.40;;;;;;;13.25;72.90;100451.59;6105090;28;20227;-65
2021/10/31 00:30:10;;;;;;;12.60;11.37;;;;;;;12.95;74.65;100470.63;6102018;29;20226;-64
2021/10/31 00:33:31;;;;;;;12.67;11.47;;;;;;;13.16;74.27;100464.00;6091051;28;22899;-63
2021/10/31 00:36:52;;;;;;;12.70;11.50;;;;;;;13.27;73.91;100458.47;6104301;28;20247;-64
2021/10/31 00:40:15;;;;;;;12.73;11.53;;;;;;;12.95;75.72;100481.06;6101958;29;20236;-64
2021/10/31 00:43:36;;;;;;;12.93;11.67;;;;;;;13.14;75.35;100471.03;6104010;29;20247;-65
2021/10/31 00:46:57;;;;;;;14.33;11.00;;;;;;;12.82;76.31;100484.88;6107040;28;20672;-64
2021/10/31 00:50:18;;;;;;;13.23;11.60;;;;;;;13.04;75.74;100479.13;6108772;29;20216;-63
2021/10/31 00:53:40;;;;;;;12.00;10.83;;;;;;;13.03;76.02;100499.19;6106755;29;20212;-64
2021/10/31 00:57:04;;;;;;;13.57;12.27;;;;;;;13.08;75.96;100486.00;6104725;28;20236;-63
2021/10/31 01:00:26;;;;;;;13.87;12.50;;;;;;;13.23;75.15;100479.53;6104747;29;22518;-63
2021/10/31 01:03:47;;;;;;;13.43;12.13;;;;;;;12.90;75.99;100488.16;6105735;28;20232;-63
2021/10/31 01:07:32;;;;;;;14.03;11.90;;;;;;;12.95;76.44;100485.41;6105286;28;20458;-65
2021/10/31 01:11:32;;;;;;;13.70;12.40;;;;;;;12.96;76.01;100485.38;6110624;28;20243;-63
2021/10/31 01:15:08;;;;;;;14.80;13.40;;;;;;;13.10;76.13;100487.66;6111022;29;20491;-64
2021/10/31 01:18:46;;;;;;;14.67;13.20;;;;;;;12.88;77.04;100483.88;6104735;29;20767;-64
2021/10/31 01:22:31;;;;;;;14.17;12.80;;;;;;;12.93;76.90;100489.81;6105657;28;20243;-64
2021/10/31 01:26:11;;;;;;;15.10;13.73;;;;;;;13.09;75.90;100478.13;6102683;28;20263;-63
2021/10/31 01:29:46;;;;;;;15.07;12.97;;;;;;;13.16;75.96;100486.66;6105031;29;20493;-64
2021/10/31 01:33:18;;;;;;;15.27;13.87;;;;;;;13.02;76.21;100494.00;6106859;28;20805;-64
2021/10/31 01:36:54;;;;;;;14.80;13.30;;;;;;;12.74;77.15;100502.50;6109373;28;21360;-63
2021/10/31 01:40:21;;;;;;;15.30;13.80;;;;;;;13.19;75.77;100513.59;6107228;29;20205;-64
2021/10/31 01:43:50;;;;;;;16.50;14.80;;;;;;;12.90;76.88;100529.13;6107946;28;20220;-64
2021/10/31 01:47:21;;;;;;;15.93;14.00;;;;;;;12.94;76.51;100522.91;6106505;28;20637;-64
2021/10/31 01:50:46;;;;;;;14.60;13.10;;;;;;;13.41;74.62;100531.38;6108149;28;20582;-64
2021/10/31 01:54:12;;;;;;;14.07;12.77;;;;;;;12.95;75.99;100537.69;6110330;29;20525;-64
2021/10/31 01:57:37;;;;;;;14.73;13.27;;;;;;;12.82;76.51;100536.28;6108724;28;20236;-63
2021/10/31 02:01:00;;;;;;;13.67;12.30;;;;;;;12.78;77.00;100525.88;6101678;28;20235;-64
2021/10/31 02:04:24;;;;;;;15.67;14.07;;;;;;;12.83;77.25;100535.38;6106102;29;20204;-64
2021/10/31 02:07:51;;;;;;;18.73;12.37;;;;;;;12.91;76.71;100528.22;6108677;28;20292;-65
2021/10/31 02:11:16;;;;;;;16.37;14.87;;;;;;;12.90;77.09;100529.97;6104569;28;20231;-64
2021/10/31 02:14:38;;;;;;;15.77;14.23;;;;;;;13.04;76.82;100534.88;6103447;29;20235;-64
2021/10/31 02:18:01;;;;;;;16.07;14.67;;;;;;;12.96;76.91;100531.59;6103172;28;20302;-64
2021/10/31 02:21:27;;;;;;;16.20;14.53;;;;;;;12.96;76.92;100539.44;6104729;28;20267;-65
2021/10/31 02:24:49;;;;;;;14.33;13.03;;;;;;;12.80;77.82;100545.00;6105890;29;20220;-64
2021/10/31 02:28:11;;;;;;;15.93;14.53;;;;;;;13.04;76.23;100537.47;6103934;28;20554;-65
2021/10/31 02:31:32;;;;;;;15.03;13.70;;;;;;;13.15;76.20;100540.72;6101805;28;20280;-64
2021/10/31 02:34:54;;;;;;;14.67;13.33;;;;;;;13.03;76.43;100546.25;6107698;29;20208;-64
2021/10/31 02:38:15;;;;;;;15.53;14.23;;;;;;;12.87;77.80;100547.47;6109155;28;20232;-64
2021/10/31 02:41:37;;;;;;;14.93;13.53;;;;;;;12.69;78.40;100560.06;6107769;28;20322;-63
2021/10/31 02:44:58;;;;;;;22.07;14.67;;;;;;;12.86;77.97;100556.22;6111779;29;20208;-63
2021/10/31 02:48:20;;;;;;;15.83;14.30;;;;;;;12.56;78.95;100566.44;6106876;28;20243;-63
2021/10/31 02:51:44;;;;;;;16.17;14.67;;;;;;;12.61;79.24;100570.66;6104650;28;20239;-63
2021/10/31 02:55:13;;;;;;;17.47;16.07;;;;;;;12.77;78.77;100552.91;6106155;29;20216;-63
2021/10/31 02:58:41;;;;;;;16.60;15.13;;;;;;;12.74;78.97;100566.03;6108553;28;20780;-64
2021/10/31 03:02:03;;;;;;;19.87;17.97;;;;;;;12.80;78.63;100565.06;6103565;28;20330;-65
2021/10/31 03:05:25;;;;;;;17.90;16.20;;;;;;;12.70;79.49;100568.78;6109076;29;20209;-63
2021/10/31 03:08:46;;;;;;;18.63;16.87;;;;;;;13.00;78.40;100564.59;6106255;28;20251;-64
2021/10/31 03:12:09;;;;;;;17.90;16.27;;;;;;;12.86;78.63;100574.50;6102789;28;20683;-63
2021/10/31 03:15:31;;;;;;;17.73;16.17;;;;;;;12.77;79.44;100571.19;6107009;28;20315;-63
2021/10/31 03:18:52;;;;;;;16.83;15.33;;;;;;;13.20;77.93;100574.56;6106655;29;20216;-65
2021/10/31 03:22:13;;;;;;;17.20;15.60;;;;;;;13.10;78.32;100579.16;6106786;28;20235;-64
2021/10/31 03:25:34;;;;;;;18.47;16.53;;;;;;;13.12;77.68;100585.22;6106340;28;20224;-64
2021/10/31 03:28:55;;;;;;;17.53;15.83;;;;;;;13.06;78.27;100587.97;6106276;29;20204;-64
2021/10/31 03:32:17;;;;;;;18.87;16.90;;;;;;;12.94;78.24;100591.72;6105702;28;20549;-64
2021/10/31 03:35:38;;;;;;;15.83;14.37;;;;;;;13.15;77.95;100592.16;6106289;28;20207;-64
2021/10/31 03:39:00;;;;;;;16.57;15.07;;;;;;;13.17;77.84;100595.59;6107723;29;20212;-63
2021/10/31 03:42:20;;;;;;;20.60;18.53;;;;;;;13.34;77.44;100608.31;6106561;28;20314;-64
2021/10/31 03:45:44;;;;;;;18.03;16.50;;;;;;;13.49;76.85;100600.09;6103931;28;20201;-64
2021/10/31 03:49:06;;;;;;;19.50;17.67;;;;;;;13.41;77.19;100607.25;6104629;29;20223;-65
2021/10/31 03:52:27;;;;;;;19.63;17.93;;;;;;;13.43;76.77;100615.91;6104735;28;20700;-64
2021/10/31 03:55:48;;;;;;;19.67;17.73;;;;;;;13.05;77.77;100625.47;6108781;28;20236;-64
2021/10/31 03:59:09;;;;;;;19.47;17.70;;;;;;;13.49;76.81;100618.41;6108169;29;20204;-63
2021/10/31 04:02:30;;;;;;;17.77;16.07;;;;;;;13.17;78.35;100629.56;6105165;28;21369;-63
2021/10/31 04:05:52;;;;;;;20.13;18.23;;;;;;;13.08;78.07;100635.84;6104073;28;20235;-63
2021/10/31 04:09:13;;;;;;;20.07;18.27;;;;;;;13.28;77.36;100640.66;6108062;29;20787;-63
2021/10/31 04:12:34;;;;;;;21.10;18.87;;;;;;;13.08;78.25;100646.31;6106800;28;20266;-64
2021/10/31 04:15:55;;;;;;;20.20;18.10;;;;;;;13.25;77.46;100639.84;6101144;28;20251;-64
2021/10/31 04:19:17;;;;;;;23.57;18.23;;;;;;;13.22;77.86;100632.91;6102361;29;20248;-64
2021/10/31 04:22:39;;;;;;;19.50;17.67;;;;;;;13.23;77.26;100633.81;6109661;28;20901;-64
2021/10/31 04:26:00;;;;;;;22.53;18.60;;;;;;;13.24;77.51;100636.41;6105314;28;20255;-64
2021/10/31 04:29:21;;;;;;;20.57;18.57;;;;;;;13.35;76.37;100633.53;6105682;29;20200;-64
2021/10/31 04:32:42;;;;;;;21.10;18.83;;;;;;;13.12;77.84;100634.03;6105842;28;20243;-65
2021/10/31 04:36:03;;;;;;;22.83;20.23;;;;;;;13.11;77.66;100633.19;6108644;28;20236;-64
2021/10/31 04:39:26;;;;;;;21.03;19.17;;;;;;;12.89;78.60;100639.75;6105657;29;20216;-64
2021/10/31 04:42:47;;;;;;;21.77;19.63;;;;;;;13.28;77.41;100647.63;6105346;28;20228;-64
2021/10/31 04:46:08;;;;;;;20.00;18.20;;;;;;;13.25;77.28;100655.53;6104846;28;20236;-65
2021/10/31 04:49:29;;;;;;;22.07;19.97;;;;;;;13.16;77.77;100653.97;6106885;29;20217;-64
2021/10/31 04:52:50;;;;;;;20.57;18.63;;;;;;;13.54;76.24;100655.75;6103662;28;20236;-65
2021/10/31 04:56:12;;;;;;;22.03;20.03;;;;;;;13.49;76.02;100660.25;6105102;28;20521;-64
2021/10/31 04:59:33;;;;;;;22.27;20.27;;;;;;;13.14;76.67;100661.88;6104945;29;20204;-62
2021/10/31 05:02:54;;;;;;;20.60;18.83;;;;;;;13.34;76.36;100671.06;6103284;28;20227;-63
2021/10/31 05:06:15;;;;;;;20.77;18.77;;;;;;;13.29;76.27;100662.44;6098506;28;20243;-63
2021/10/31 05:09:36;;;;;;;20.83;18.93;;;;;;;13.02;78.03;100674.34;6112953;28;21687;-63
2021/10/31 05:12:59;;;;;;;20.13;18.23;;;;;;;13.11;77.00;100664.56;6105869;28;20633;-64
2021/10/31 05:16:20;;;;;;;22.20;20.10;;;;;;;12.77;79.05;100673.09;6103957;28;20239;-63
2021/10/31 05:19:41;;;;;;;22.13;20.20;;;;;;;12.77;79.06;100665.25;6108139;29;20205;-63
2021/10/31 05:23:02;;;;;;;20.17;18.17;;;;;;;13.09;77.58;100662.88;6106309;28;20769;-64
2021/10/31 05:26:25;;;;;;;20.03;18.23;;;;;;;12.96;77.97;100664.88;6107217;28;20271;-63
2021/10/31 05:29:48;;;;;;;20.53;18.33;;;;;;;13.12;76.50;100654.94;6109126;29;20205;-64
2021/10/31 05:33:09;;;;;;;20.17;18.27;;;;;;;12.97;77.54;100654.41;6107820;28;20236;-65
2021/10/31 05:36:32;;;;;;;20.53;18.50;;;;;;;13.06;77.10;100655.94;6110196;28;20232;-64
2021/10/31 05:39:53;;;;;;;19.63;17.63;;;;;;;12.88;78.12;100665.03;6107278;29;22540;-65
2021/10/31 05:43:14;;;;;;;20.23;18.33;;;;;;;12.92;77.44;100673.69;6106814;28;20263;-63
2021/10/31 05:46:36;;;;;;;20.17;18.20;;;;;;;12.80;77.96;100670.44;6104125;28;20268;-65
2021/10/31 05:49:58;;;;;;;20.53;18.47;;;;;;;12.74;78.16;100670.56;6105971;29;20287;-64
2021/10/31 05:53:18;;;;;;;19.63;17.90;;;;;;;12.63;79.30;100676.91;6105355;28;22173;-64
2021/10/31 05:56:40;;;;;;;19.67;17.70;;;;;;;12.73;78.12;100678.44;6109291;28;20227;-63
2021/10/31 06:00:05;;;;;;;20.70;18.83;;;;;;;12.86;77.05;100671.22;6106581;29;20228;-64
2021/10/31 06:03:28;;;;;;;18.33;16.60;;;;;;;13.05;76.63;100669.94;6109012;28;20261;-64
2021/10/31 06:06:49;;;;;;;21.47;19.37;;;;;;;12.60;78.30;100677.78;6107602;28;20633;-63
2021/10/31 06:10:12;;;;;;;22.43;20.23;;;;;;;12.67;78.39;100681.16;6109312;29;20532;-63
2021/10/31 06:13:33;;;;;;;20.27;18.37;;;;;;;12.74;78.36;100680.16;6109069;28;21323;-63
2021/10/31 06:16:54;;;;;;;20.33;18.13;;;;;;;12.81;77.58;100681.75;6111587;28;20504;-63
2021/10/31 06:20:17;;;;;;;19.63;17.63;;;;;;;12.86;77.21;100684.28;6113632;29;20307;-63
2021/10/31 06:23:38;;;;;;;18.23;16.53;;;;;;;13.28;75.87;100673.75;6111967;29;20236;-63
2021/10/31 06:26:59;;;;;;;21.30;19.27;;;;;;;12.58;77.86;100684.81;6111309;28;20274;-63
2021/10/31 06:30:20;;;;;;;18.93;17.13;;;;;;;12.22;79.89;100697.69;6108951;29;20307;-62
2021/10/31 06:33:41;;;;;;;21.43;19.33;;;;;;;12.66;78.23;100692.50;6109893;28;20224;-64
2021/10/31 06:37:04;;;;;;;19.60;17.70;;;;;;;12.93;76.46;100691.97;6113135;28;20267;-63
2021/10/31 06:40:25;;;;;;;21.47;19.47;;;;;;;13.16;75.82;100694.09;6110831;29;23379;-64
2021/10/31 06:43:45;;;;;;;22.77;16.77;;;;;;;13.18;75.19;100700.16;6107688;29;20220;-64
2021/10/31 06:47:06;;;;;;;18.63;17.03;;;;;;;13.19;74.99;100704.47;6110450;28;20511;-64
2021/10/31 06:50:27;;;;;;;19.13;17.33;;;;;;;13.33;74.68;100705.94;6122009;28;20212;-64
2021/10/31 06:53:50;;;;;;;19.03;17.27;;;;;;;13.13;75.04;100706.38;6107703;29;20239;-63
2021/10/31 06:57:11;;;;;;;18.53;16.83;;;;;;;13.15;75.13;100713.28;6107472;28;20236;-64
2021/10/31 07:00:32;;;;;;;18.23;16.63;;;;;;;13.35;74.32;100705.00;6103649;28;20201;-64
2021/10/31 07:03:52;;;;;;;30.23;27.17;;;;;;;13.51;73.78;100709.91;6103204;29;20239;-64
2021/10/31 07:07:14;;;;;;;20.43;17.73;;;;;;;13.11;74.53;100716.84;6100609;28;20235;-62
2021/10/31 07:10:36;;;;;;;17.57;15.87;;;;;;;13.37;73.72;100711.06;6101541;28;20197;-61
2021/10/31 07:13:57;;;;;;;20.17;18.00;;;;;;;12.91;75.66;100717.28;6101534;29;20669;-65
2021/10/31 07:17:18;;;;;;;18.23;16.43;;;;;;;13.23;74.59;100720.09;6107351;28;20240;-62
2021/10/31 07:20:39;;;;;;;17.67;16.00;;;;;;;12.93;75.91;100722.44;6105339;28;20216;-64
2021/10/31 07:24:00;;;;;;;17.90;16.30;;;;;;;12.76;75.82;100715.81;6105605;29;20852;-65
2021/10/31 07:27:22;;;;;;;17.33;15.83;;;;;;;12.89;75.93;100719.06;6108501;28;20236;-64
2021/10/31 07:30:43;;;;;;;18.63;16.93;;;;;;;12.71;76.82;100729.84;6104278;28;21140;-65
2021/10/31 07:34:08;;;;;;;18.37;16.70;;;;;;;13.12;75.38;100718.56;6104140;29;20227;-65
2021/10/31 07:37:30;;;;;;;17.50;15.87;;;;;;;13.28;74.55;100715.59;6106930;28;20236;-64
2021/10/31 07:40:51;;;;;;;20.07;16.83;;;;;;;13.09;74.53;100709.94;6110028;28;20243;-64
2021/10/31 07:44:14;;;;;;;17.67;16.13;;;;;;;13.13;75.05;100715.06;6107949;29;21841;-65
2021/10/31 07:47:35;;;;;;;17.87;16.17;;;;;;;13.23;74.70;100720.09;6105589;28;20240;-64
2021/10/31 07:50:56;;;;;;;17.53;15.90;;;;;;;13.24;74.47;100713.97;6107413;28;20341;-64
2021/10/31 07:54:21;;;;;;;17.93;16.10;;;;;;;13.59;72.98;100716.69;6106224;29;20491;-65
2021/10/31 07:57:43;;;;;;;14.73;13.27;;;;;;;14.01;71.50;100727.94;6105388;28;20232;-64
2021/10/31 08:01:06;;;;;;;16.37;14.83;;;;;;;13.99;71.53;100734.03;6100362;28;20228;-64
2021/10/31 08:04:27;;;;;;;16.87;15.13;;;;;;;13.27;73.64;100722.59;6105342;29;20316;-64
2021/10/31 08:07:47;;;;;;;16.57;15.03;;;;;;;13.51;73.45;100713.41;6102297;28;20235;-64
2021/10/31 08:11:09;;;;;;;15.53;14.03;;;;;;;13.56;72.91;100711.53;6104942;28;20235;-64
2021/10/31 08:14:30;;;;;;;17.23;14.77;;;;;;;13.10;73.80;100720.34;6107768;29;20217;-65
2021/10/31 08:17:53;;;;;;;16.87;15.37;;;;;;;12.84;76.20;100717.44;6103472;28;20814;-64
2021/10/31 08:21:14;;;;;;;16.27;14.83;;;;;;;13.31;74.42;100723.44;6105291;28;20468;-65
2021/10/31 08:24:35;;;;;;;14.40;12.97;;;;;;;13.67;72.38;100726.13;6106971;29;20495;-64
2021/10/31 08:27:56;;;;;;;15.97;14.47;;;;;;;13.06;75.18;100730.91;6105698;28;20255;-65
2021/10/31 08:31:23;;;;;;;16.60;15.00;;;;;;;13.69;72.50;100717.34;6105738;28;20231;-64
2021/10/31 08:34:45;;;;;;;15.53;14.03;;;;;;;13.86;72.01;100724.78;6106019;29;20590;-65
2021/10/31 08:38:06;;;;;;;16.40;14.80;;;;;;;13.45;72.46;100716.13;6110041;28;20231;-63
2021/10/31 08:41:28;;;;;;;16.13;14.53;;;;;;;13.76;72.37;100704.94;6106490;28;20243;-64
2021/10/31 08:44:50;;;;;;;15.07;13.50;;;;;;;14.92;68.10;100698.41;6107344;29;20220;-64
2021/10/31 08:48:12;;;;;;;13.53;12.33;;;;;;;16.95;61.24;100683.03;6107811;28;20248;-64
2021/10/31 08:51:34;;;;;;;12.60;11.40;;;;;;;19.26;51.66;100670.66;6103435;28;20692;-64
2021/10/31 08:54:55;;;;;;;11.37;10.37;;;;;;;20.92;48.27;100675.50;6098489;29;20220;-65
2021/10/31 08:58:16;;;;;;;10.88;9.98;;;;;;;19.50;50.38;100673.88;6096919;28;20261;-63
2021/10/31 09:01:36;;;;;;;8.75;8.05;;;;;;;19.88;50.86;100683.56;6096550;28;20239;-64
2021/10/31 09:04:57;;;;;;;10.88;9.98;;;;;;;21.91;45.49;100664.66;6103006;29;20204;-64
2021/10/31 09:08:20;;;;;;;10.02;9.23;;;;;;;21.96;43.94;100668.72;6102460;28;20621;-64
2021/10/31 09:11:41;;;;;;;52.17;41.80;;;;;;;22.19;44.05;100662.06;6101184;28;20236;-63
2021/10/31 09:15:02;;;;;;;810.08;736.80;;;;;;;20.80;49.03;100663.78;6103841;29;20216;-62
2021/10/31 09:18:23;;;;;;;200.05;183.18;;;;;;;17.65;55.81;100679.41;6103333;28;20263;-62
2021/10/31 09:21:44;;;;;;;483.48;439.90;;;;;;;18.68;53.06;100661.00;6104298;28;20240;-62
2021/10/31 09:25:08;;;;;;;207.65;190.65;;;;;;;20.40;48.58;100651.81;6101928;29;20201;-64
2021/10/31 09:28:29;;;;;;;37.45;34.20;;;;;;;20.46;48.03;100652.31;6098173;29;20251;-64
2021/10/31 09:31:50;;;;;;;11.95;10.95;;;;;;;20.29;48.10;100655.00;6107422;28;20235;-65
2021/10/31 09:35:11;;;;;;;13.10;11.85;;;;;;;21.32;45.92;100648.59;6104757;29;20236;-64
2021/10/31 09:38:33;;;;;;;11.30;10.23;;;;;;;19.55;50.07;100642.00;6101335;29;20712;-64
2021/10/31 09:41:55;;;;;;;11.45;10.45;;;;;;;22.15;44.74;100639.31;6100814;28;20232;-65
2021/10/31 09:45:16;;;;;;;11.20;10.30;;;;;;;21.51;45.04;100643.13;6102508;29;20217;-64
2021/10/31 09:48:37;;;;;;;10.38;9.43;;;;;;;21.93;44.46;100633.63;6102852;29;20236;-64
2021/10/31 09:51:58;;;;;;;10.52;9.63;;;;;;;20.80;47.65;100628.50;6101806;28;20798;-64
2021/10/31 09:55:19;;;;;;;9.70;8.90;;;;;;;21.83;44.02;100623.56;6102614;29;20228;-64
2021/10/31 09:58:43;;;;;;;10.98;9.95;;;;;;;22.43;42.80;100608.50;6102191;28;20231;-64
2021/10/31 10:02:15;;;;;;;11.80;10.50;;;;;;;22.65;42.73;100607.16;6100328;28;20649;-65
2021/10/31 10:05:36;;;;;;;10.27;9.38;;;;;;;23.88;40.10;100609.78;6109920;28;20208;-64
2021/10/31 10:09:00;;;;;;;13.02;11.95;;;;;;;21.93;43.78;100630.97;6111953;29;20440;-64
2021/10/31 10:12:22;;;;;;;11.05;10.05;;;;;;;20.34;47.73;100626.53;6110271;28;20346;-64
2021/10/31 10:15:45;;;;;;;11.95;11.05;;;;;;;19.31;50.37;100639.63;6106110;28;20228;-64
2021/10/31 10:19:15;;;;;;;10.82;9.73;;;;;;;18.42;54.56;100639.28;6104558;29;20508;-65
2021/10/31 10:22:37;;;;;;;11.48;10.48;;;;;;;18.26;53.93;100636.47;6111465;28;20236;-65
2021/10/31 10:26:06;;;;;;;11.00;10.07;;;;;;;20.37;48.35;100623.69;6105639;28;20252;-65
2021/10/31 10:29:30;;;;;;;11.63;10.43;;;;;;;22.58;43.56;100623.44;6112194;29;20601;-65
2021/10/31 10:32:54;;;;;;;11.95;10.95;;;;;;;21.87;43.80;100626.00;6106938;28;20228;-65
2021/10/31 10:36:17;;;;;;;10.40;9.35;;;;;;;21.72;45.10;100628.63;6109632;28;20243;-64
2021/10/31 10:39:39;;;;;;;9.23;8.50;;;;;;;21.63;45.04;100619.44;6109377;29;20627;-64
2021/10/31 10:43:02;;;;;;;11.23;9.93;;;;;;;19.08;50.90;100622.25;6112416;28;20575;-64
2021/10/31 10:46:23;;;;;;;10.98;9.88;;;;;;;19.64;49.58;100629.19;6107470;28;20295;-64
2021/10/31 10:49:47;;;;;;;10.85;9.68;;;;;;;18.88;52.31;100631.97;6107856;29;20931;-64
2021/10/31 10:53:14;;;;;;;10.70;9.68;;;;;;;20.40;48.01;100612.13;6107647;28;20236;-64
2021/10/31 10:56:35;;;;;;;10.27;9.23;;;;;;;22.87;42.83;100596.03;6108510;28;20231;-64
2021/10/31 10:59:58;;;;;;;10.38;9.38;;;;;;;23.17;41.89;100599.38;6110272;29;20598;-64
2021/10/31 11:03:20;;;;;;;12.18;9.60;;;;;;;23.56;39.86;100583.56;6105423;28;20236;-64
2021/10/31 11:06:49;;;;;;;10.20;9.30;;;;;;;23.12;41.23;100563.47;6107096;28;20535;-65
2021/10/31 11:10:19;;;;;;;8.15;7.45;;;;;;;22.74;41.66;100561.44;6105324;29;21690;-64
2021/10/31 11:13:46;;;;;;;9.20;8.40;;;;;;;23.32;39.90;100557.69;6106720;29;20223;-63
2021/10/31 11:17:07;;;;;;;9.82;7.20;;;;;;;20.66;45.31;100568.41;6102191;28;20236;-63
2021/10/31 11:20:30;;;;;;;7.13;6.32;;;;;;;23.75;42.70;100551.28;6104486;28;20208;-65
2021/10/31 11:23:56;;;;;;;8.88;8.05;;;;;;;23.97;38.94;100545.34;6107940;29;20696;-65
2021/10/31 11:27:20;;;;;;;9.27;8.48;;;;;;;23.08;40.67;100548.69;6104609;28;20961;-65
2021/10/31 11:30:42;;;;;;;8.85;8.05;;;;;;;22.90;41.85;100554.19;6105250;28;20243;-65
2021/10/31 11:34:03;;;;;;;8.32;7.50;;;;;;;21.49;44.62;100550.50;6106197;29;20224;-64
2021/10/31 11:37:26;;;;;;;8.75;7.95;;;;;;;20.81;45.81;100540.25;6103567;28;20960;-63
2021/10/31 11:40:53;;;;;;;9.95;8.50;;;;;;;22.50;42.75;100526.72;6104562;28;20244;-65
2021/10/31 11:44:14;;;;;;;9.80;9.00;;;;;;;22.42;43.40;100521.91;6110799;29;20228;-64
2021/10/31 11:47:37;;;;;;;8.52;7.78;;;;;;;22.86;41.58;100517.34;6109033;28;20231;-64
2021/10/31 11:51:10;;;;;;;8.13;7.32;;;;;;;24.40;38.62;100505.06;6109420;28;20257;-65
2021/10/31 11:54:31;;;;;;;8.45;7.75;;;;;;;23.42;39.48;100496.81;6112202;29;20240;-64
2021/10/31 11:58:10;;;;;;;11.02;10.02;;;;;;;24.64;38.85;100489.16;6112751;28;20244;-64
2021/10/31 12:01:37;;;;;;;7.38;6.72;;;;;;;24.24;39.11;100484.03;6122188;28;20768;-64
2021/10/31 12:05:14;;;;;;;7.35;6.45;;;;;;;24.85;37.28;100472.56;6108996;29;20211;-65
2021/10/31 12:08:47;;;;;;;7.15;6.45;;;;;;;23.91;38.78;100480.16;6120259;28;20223;-64
2021/10/31 12:12:25;;;;;;;10.45;7.53;;;;;;;22.99;41.21;100483.69;6108988;28;20246;-65
2021/10/31 12:16:03;;;;;;;8.10;7.40;;;;;;;21.19;45.82;100476.28;6109622;28;20248;-64
2021/10/31 12:19:35;;;;;;;7.50;6.90;;;;;;;20.98;46.81;100463.41;6122913;28;20208;-65
2021/10/31 12:23:20;;;;;;;8.38;7.68;;;;;;;21.30;46.11;100465.94;6108120;28;20555;-66
2021/10/31 12:26:44;;;;;;;9.57;8.68;;;;;;;21.80;45.13;100454.09;6109910;28;20252;-65
2021/10/31 12:30:41;;;;;;;9.55;8.75;;;;;;;20.20;49.17;100450.13;6112140;29;20204;-66
2021/10/31 12:34:22;;;;;;;10.20;9.18;;;;;;;20.64;47.97;100438.84;6102498;29;20668;-64
2021/10/31 12:37:42;;;;;;;8.98;8.27;;;;;;;20.04;49.93;100433.38;6104936;28;20236;-66
2021/10/31 12:41:35;;;;;;;11.38;10.30;;;;;;;20.27;50.72;100438.25;6099448;28;21358;-64
2021/10/31 12:44:59;;;;;;;8.85;8.05;;;;;;;20.06;50.07;100426.22;6107574;29;20216;-64
2021/10/31 12:48:20;;;;;;;9.60;8.73;;;;;;;19.95;51.04;100412.75;6106304;28;20566;-61
2021/10/31 12:51:49;;;;;;;8.70;8.00;;;;;;;20.62;50.50;100398.41;6104896;28;20239;-61
2021/10/31 12:55:14;;;;;;;9.38;8.55;;;;;;;19.76;52.07;100402.34;6092324;29;20215;-62
2021/10/31 12:58:35;;;;;;;10.10;9.05;;;;;;;19.86;51.48;100403.53;6106394;28;20227;-63
2021/10/31 13:02:07;;;;;;;8.65;7.95;;;;;;;19.34;52.67;100401.84;6108536;28;20232;-63
2021/10/31 13:05:31;;;;;;;9.55;8.75;;;;;;;19.12;53.66;100396.84;6118235;28;20231;-63
2021/10/31 13:08:56;;;;;;;9.68;8.88;;;;;;;18.63;55.28;100386.94;6120178;29;20204;-63
2021/10/31 13:12:28;;;;;;;10.52;9.63;;;;;;;18.63;55.35;100371.13;6112960;28;21041;-63
2021/10/31 13:15:52;;;;;;;9.77;8.98;;;;;;;18.63;55.84;100381.66;6113045;28;20504;-63
2021/10/31 13:19:13;;;;;;;11.20;10.10;;;;;;;18.59;55.81;100380.09;6113308;29;20233;-63
2021/10/31 13:22:35;;;;;;;12.63;9.68;;;;;;;18.15;57.45;100375.19;6113133;28;20247;-62
2021/10/31 13:26:00;;;;;;;9.55;8.75;;;;;;;17.92;58.35;100363.13;6109756;28;20240;-63
2021/10/31 13:29:21;;;;;;;10.32;9.43;;;;;;;18.58;56.20;100349.38;6112027;29;20241;-62
2021/10/31 13:32:47;;;;;;;9.10;8.27;;;;;;;18.96;55.44;100349.28;6112105;28;20358;-63
2021/10/31 13:36:15;;;;;;;8.98;8.18;;;;;;;19.12;54.72;100348.47;6108487;28;20331;-62
2021/10/31 13:39:36;;;;;;;10.05;9.18;;;;;;;18.01;58.17;100348.63;6110326;29;20219;-63
2021/10/31 13:43:00;;;;;;;9.15;8.35;;;;;;;17.71;58.84;100341.22;6115727;28;20501;-64
2021/10/31 13:46:22;;;;;;;10.32;9.45;;;;;;;18.50;56.92;100326.03;6115898;28;20569;-63
2021/10/31 13:49:44;;;;;;;9.80;8.93;;;;;;;18.00;58.26;100337.25;6116301;29;20208;-64
2021/10/31 13:53:07;;;;;;;9.43;8.57;;;;;;;17.81;59.05;100324.06;6114332;28;20232;-62
2021/10/31 13:56:30;;;;;;;9.55;8.75;;;;;;;17.77;59.17;100319.88;6113552;28;20243;-63
2021/10/31 13:59:55;;;;;;;8.43;7.82;;;;;;;18.27;57.94;100298.16;6115596;29;20236;-63
2021/10/31 14:03:20;;;;;;;9.70;8.90;;;;;;;18.52;56.88;100296.13;6115221;28;20239;-64
2021/10/31 14:06:42;;;;;;;8.10;7.47;;;;;;;18.55;56.89;100282.75;6116601;28;20263;-62
2021/10/31 14:10:04;;;;;;;8.50;7.72;;;;;;;18.49;56.84;100278.66;6119130;29;20236;-63
2021/10/31 14:13:35;;;;;;;7.75;7.05;;;;;;;18.09;57.79;100272.75;6115590;28;20645;-62
2021/10/31 14:17:11;;;;;;;7.25;6.55;;;;;;;18.40;56.65;100272.06;6111562;28;20232;-63
2021/10/31 14:20:33;;;;;;;5.67;5.27;;;;;;;18.74;55.78;100256.31;6118437;28;20240;-63
2021/10/31 14:24:06;;;;;;;5.57;5.07;;;;;;;17.92;58.37;100251.63;6117472;29;20212;-61
2021/10/31 14:27:29;;;;;;;5.68;5.20;;;;;;;17.56;59.32;100257.69;6110632;28;20247;-63
2021/10/31 14:30:54;;;;;;;5.20;4.70;;;;;;;17.97;58.09;100252.25;6115894;28;20236;-63
2021/10/31 14:34:17;;;;;;;6.03;5.20;;;;;;;18.12;58.00;100248.84;6108064;29;20279;-63
2021/10/31 14:37:38;;;;;;;6.03;5.37;;;;;;;17.65;59.22;100241.47;6107041;28;20240;-63
2021/10/31 14:41:03;;;;;;;7.37;6.57;;;;;;;17.77;59.23;100240.84;6108617;28;21298;-63
2021/10/31 14:44:38;;;;;;;5.47;5.00;;;;;;;17.49;60.19;100243.97;6111915;29;20200;-63
2021/10/31 14:47:59;;;;;;;6.13;5.73;;;;;;;17.26;60.86;100235.34;6107934;28;20609;-63
2021/10/31 14:51:27;;;;;;;5.75;5.25;;;;;;;17.16;61.92;100233.19;6113019;28;20524;-64
2021/10/31 14:54:51;;;;;;;5.80;5.30;;;;;;;17.18;61.91;100226.13;6110405;29;20598;-62
2021/10/31 14:58:13;;;;;;;6.13;5.63;;;;;;;17.07;62.23;100223.97;6106937;28;20236;-65
2021/10/31 15:01:41;;;;;;;7.07;6.53;;;;;;;16.90;63.13;100227.34;6106494;28;20236;-63
2021/10/31 15:05:04;;;;;;;6.90;6.20;;;;;;;16.64;64.26;100218.81;6114430;29;20243;-64
2021/10/31 15:08:26;;;;;;;6.93;6.43;;;;;;;16.64;64.39;100210.91;6114620;28;20259;-63
2021/10/31 15:11:48;;;;;;;6.13;5.50;;;;;;;16.86;63.69;100204.75;6111786;28;20338;-62
2021/10/31 15:15:10;;;;;;;6.87;6.37;;;;;;;16.38;65.60;100203.31;6110539;29;20243;-63
2021/10/31 15:18:30;;;;;;;5.33;4.83;;;;;;;16.40;65.64;100199.72;6116050;28;20239;-63
2021/10/31 15:21:51;;;;;;;5.57;5.00;;;;;;;16.22;66.26;100200.47;6106043;28;20243;-63
2021/10/31 15:25:14;;;;;;;5.23;4.83;;;;;;;16.63;65.24;100190.78;6107277;29;20204;-63
2021/10/31 15:28:35;;;;;;;5.53;4.70;;;;;;;16.73;64.64;100184.22;6110090;29;20252;-64
2021/10/31 15:31:56;;;;;;;6.53;5.20;;;;;;;16.65;65.18;100180.22;6108850;28;20263;-63
2021/10/31 15:35:18;;;;;;;5.30;4.90;;;;;;;16.76;64.78;100172.72;6112453;29;20212;-63